createdAt,value
2023-01-05T00:00:28.423Z,100491.94
2023-01-05T00:03:01.244Z,100494.55
2023-01-05T00:05:34.150Z,100492.80
2023-01-05T00:08:07.138Z,100489.17
2023-01-05T00:10:58.257Z,100490.46
2023-01-05T00:13:48.829Z,100483.49
2023-01-05T00:16:39.083Z,100490.84
2023-01-05T00:19:32.924Z,100491.27
2023-01-05T00:22:31.947Z,100486.76
2023-01-05T00:25:12.099Z,100486.06
2023-01-05T00:27:45.755Z,100486.72
2023-01-05T00:30:21.893Z,100475.43
2023-01-05T00:32:55.179Z,100471.88
2023-01-05T00:35:29.970Z,100468.10
2023-01-05T00:38:03.112Z,100476.70
2023-01-05T00:40:37.567Z,100488.65
2023-01-05T00:43:10.415Z,100489.30
2023-01-05T00:45:46.465Z,100478.33
2023-01-05T00:48:18.494Z,100471.17
2023-01-05T00:50:52.456Z,100469.97
2023-01-05T00:53:25.826Z,100477.98
2023-01-05T00:56:00.061Z,100466.74
2023-01-05T00:58:33.388Z,100463.52
2023-01-05T01:01:12.485Z,100471.69
2023-01-05T01:03:45.376Z,100455.30
2023-01-05T01:06:18.750Z,100454.84
2023-01-05T01:08:51.926Z,100449.50
2023-01-05T01:11:25.450Z,100436.97
2023-01-05T01:13:58.523Z,100432.18
2023-01-05T01:16:31.417Z,100425.02
2023-01-05T01:19:05.571Z,100420.62
2023-01-05T01:21:38.749Z,100424.47
2023-01-05T01:24:19.585Z,100420.62
2023-01-05T01:26:52.903Z,100405.59
2023-01-05T01:29:26.344Z,100419.72
2023-01-05T01:32:00.188Z,100414.28
2023-01-05T01:37:03.200Z,100397.66
2023-01-05T01:39:37.911Z,100398.27
2023-01-05T01:42:17.854Z,100392.00
2023-01-05T01:45:04.615Z,100386.39
2023-01-05T01:47:53.271Z,100385.80
2023-01-05T01:50:45.109Z,100380.43
2023-01-05T01:53:31.287Z,100377.62
2023-01-05T01:56:07.529Z,100388.20
2023-01-05T01:58:41.113Z,100385.79
2023-01-05T02:01:14.579Z,100385.44
2023-01-05T02:03:48.190Z,100392.45
2023-01-05T02:06:23.194Z,100382.61
2023-01-05T02:08:56.157Z,100380.43
2023-01-05T02:11:42.058Z,100383.39
2023-01-05T02:14:39.644Z,100371.12
2023-01-05T02:17:41.493Z,100370.39
2023-01-05T02:20:44.730Z,100369.41
2023-01-05T02:23:49.056Z,100368.78
2023-01-05T02:26:52.267Z,100365.91
2023-01-05T02:29:49.771Z,100363.96
2023-01-05T02:32:24.613Z,100368.25
2023-01-05T02:35:18.781Z,100368.58
2023-01-05T02:37:59.263Z,100366.05
2023-01-05T02:40:42.945Z,100366.52
2023-01-05T02:43:20.280Z,100365.13
2023-01-05T02:45:53.206Z,100362.80
2023-01-05T02:48:26.985Z,100350.94
2023-01-05T02:51:07.110Z,100345.29
2023-01-05T02:53:51.224Z,100341.64
2023-01-05T02:56:28.898Z,100332.73
2023-01-05T02:59:06.524Z,100341.33
2023-01-05T03:01:49.499Z,100338.61
2023-01-05T03:04:40.141Z,100345.48
2023-01-05T03:07:19.171Z,100338.39
2023-01-05T03:09:54.380Z,100323.59
2023-01-05T03:12:52.553Z,100322.02
2023-01-05T03:15:32.505Z,100313.69
2023-01-05T03:18:14.312Z,100312.71
2023-01-05T03:20:51.076Z,100305.00
2023-01-05T03:23:41.891Z,100304.94
2023-01-05T03:26:33.158Z,100314.61
2023-01-05T03:29:23.932Z,100314.69
2023-01-05T03:32:22.104Z,100306.00
2023-01-05T03:35:32.868Z,100303.20
2023-01-05T03:38:19.534Z,100308.34
2023-01-05T03:40:55.158Z,100300.63
2023-01-05T03:43:28.138Z,100290.35
2023-01-05T03:46:01.731Z,100284.77
2023-01-05T03:48:34.900Z,100285.88
2023-01-05T03:51:08.573Z,100293.60
2023-01-05T03:53:42.628Z,100292.77
2023-01-05T03:56:15.383Z,100289.27
2023-01-05T03:58:48.205Z,100286.84
2023-01-05T04:01:21.370Z,100275.73
2023-01-05T04:03:54.429Z,100278.09
2023-01-05T04:06:27.219Z,100276.12
2023-01-05T04:09:00.227Z,100271.13
2023-01-05T04:11:33.180Z,100270.64
2023-01-05T04:14:07.708Z,100269.75
2023-01-05T04:16:40.932Z,100270.09
2023-01-05T04:19:16.086Z,100259.12
2023-01-05T04:21:49.059Z,100261.89
2023-01-05T04:24:23.001Z,100254.61
2023-01-05T04:26:56.260Z,100255.30
2023-01-05T04:29:30.767Z,100259.30
2023-01-05T04:32:06.235Z,100258.27
2023-01-05T04:34:39.613Z,100257.53
2023-01-05T04:37:12.741Z,100255.49
2023-01-05T04:39:45.483Z,100251.53
2023-01-05T04:42:19.358Z,100244.50
2023-01-05T04:44:54.316Z,100241.44
2023-01-05T04:47:27.522Z,100235.30
2023-01-05T04:50:01.608Z,100234.30
2023-01-05T04:52:34.749Z,100231.36
2023-01-05T04:55:08.900Z,100224.00
2023-01-05T04:57:43.395Z,100220.93
2023-01-05T05:00:17.139Z,100213.21
2023-01-05T05:02:51.064Z,100210.89
2023-01-05T05:05:24.051Z,100210.14
2023-01-05T05:07:58.639Z,100210.14
2023-01-05T05:10:33.630Z,100206.53
2023-01-05T05:13:06.508Z,100198.17
2023-01-05T05:15:40.789Z,100203.61
2023-01-05T05:18:13.949Z,100207.00
2023-01-05T05:20:49.114Z,100197.24
2023-01-05T05:23:22.895Z,100189.66
2023-01-05T05:25:56.300Z,100192.73
2023-01-05T05:28:29.659Z,100188.88
2023-01-05T05:31:02.627Z,100181.69
2023-01-05T05:33:37.105Z,100188.12
2023-01-05T05:36:10.847Z,100191.59
2023-01-05T05:38:43.806Z,100187.38
2023-01-05T05:41:16.628Z,100181.55
2023-01-05T05:43:49.368Z,100182.59
2023-01-05T05:46:22.217Z,100174.73
2023-01-05T05:48:55.808Z,100176.13
2023-01-05T05:51:29.218Z,100180.59
2023-01-05T05:54:02.064Z,100180.98
2023-01-05T05:56:35.048Z,100171.58
2023-01-05T05:59:07.718Z,100171.58
2023-01-05T06:01:41.400Z,100154.86
2023-01-05T06:04:14.132Z,100150.50
2023-01-05T06:06:47.932Z,100154.36
2023-01-05T06:09:21.085Z,100151.78
2023-01-05T06:11:54.771Z,100148.28
2023-01-05T06:14:28.006Z,100144.34
2023-01-05T06:17:00.990Z,100148.99
2023-01-05T06:19:34.072Z,100142.84
2023-01-05T06:22:07.730Z,100137.08
2023-01-05T06:24:41.048Z,100132.58
2023-01-05T06:27:13.771Z,100131.44
2023-01-05T06:29:46.421Z,100121.28
2023-01-05T06:32:19.364Z,100119.09
2023-01-05T06:34:52.749Z,100113.05
2023-01-05T06:37:26.240Z,100110.11
2023-01-05T06:40:00.224Z,100105.30
2023-01-05T06:42:33.453Z,100112.04
2023-01-05T06:45:08.248Z,100106.16
2023-01-05T06:47:41.227Z,100100.77
2023-01-05T06:50:14.642Z,100104.65
2023-01-05T06:52:47.745Z,100094.27
2023-01-05T06:55:22.158Z,100091.56
2023-01-05T06:58:00.447Z,100089.80
2023-01-05T07:00:31.144Z,100088.78
2023-01-05T07:03:04.419Z,100086.47
2023-01-05T07:05:39.071Z,100088.39
2023-01-05T07:08:12.888Z,100088.80
2023-01-05T07:10:45.595Z,100081.20
2023-01-05T07:13:19.072Z,100083.92
2023-01-05T07:15:51.873Z,100085.73
2023-01-05T07:18:24.989Z,100070.28
2023-01-05T07:20:57.765Z,100070.91
2023-01-05T07:23:31.191Z,100078.16
2023-01-05T07:26:04.747Z,100064.25
2023-01-05T07:28:39.645Z,100065.94
2023-01-05T07:31:13.714Z,100067.63
2023-01-05T07:33:47.061Z,100060.79
2023-01-05T07:36:19.770Z,100042.66
2023-01-05T07:38:56.730Z,100035.81
2023-01-05T07:41:29.176Z,100031.84
2023-01-05T07:44:02.201Z,100030.68
2023-01-05T07:46:35.427Z,100030.80
2023-01-05T07:49:09.928Z,100024.09
2023-01-05T07:51:42.917Z,100009.14
2023-01-05T07:54:15.945Z,100002.83
2023-01-05T07:56:49.110Z,99986.06
2023-01-05T07:59:21.994Z,99985.43
2023-01-05T08:01:54.907Z,99973.69
2023-01-05T08:04:28.083Z,99973.05
2023-01-05T08:07:02.185Z,99961.05
2023-01-05T08:09:51.866Z,99948.91
2023-01-05T08:12:24.365Z,99945.30
2023-01-05T08:14:57.168Z,99946.72
2023-01-05T08:17:29.971Z,99949.44
2023-01-05T08:20:02.723Z,99950.88
2023-01-05T08:22:37.183Z,99958.97
2023-01-05T08:25:10.743Z,99956.39
2023-01-05T08:27:43.396Z,99958.98
2023-01-05T08:30:16.619Z,99950.34
2023-01-05T08:32:49.461Z,99952.11
2023-01-05T08:35:22.736Z,99939.23
2023-01-05T08:37:55.475Z,99932.63
2023-01-05T08:40:28.300Z,99928.38
2023-01-05T08:43:01.316Z,99918.92
2023-01-05T08:45:35.398Z,99912.20
2023-01-05T08:48:09.546Z,99899.52
2023-01-05T08:50:42.633Z,99895.45
2023-01-05T08:53:15.727Z,99882.80
2023-01-05T08:55:48.554Z,99885.46
2023-01-05T08:58:21.759Z,99876.79
2023-01-05T09:02:26.825Z,99868.48
2023-01-05T09:04:59.899Z,99859.20
2023-01-05T09:07:33.268Z,99856.98
2023-01-05T09:10:07.711Z,99865.13
2023-01-05T09:12:41.353Z,99844.19
2023-01-05T09:15:15.258Z,99821.87
2023-01-05T09:17:48.219Z,99809.80
2023-01-05T09:20:21.060Z,99808.86
2023-01-05T09:22:53.909Z,99793.31
2023-01-05T09:25:26.779Z,99792.66
2023-01-05T09:27:59.570Z,99773.81
2023-01-05T09:30:40.187Z,99756.21
2023-01-05T09:33:07.644Z,99760.55
2023-01-05T09:35:40.387Z,99766.47
2023-01-05T09:38:13.840Z,99758.44
2023-01-05T09:40:46.913Z,99768.77
2023-01-05T09:43:29.480Z,99767.65
2023-01-05T09:46:03.574Z,99750.50
2023-01-05T09:48:43.951Z,99735.30
2023-01-05T09:51:16.826Z,99729.95
2023-01-05T09:53:49.658Z,99719.39
2023-01-05T09:59:32.224Z,99692.95
2023-01-05T10:02:40.294Z,99698.17
2023-01-05T10:05:15.667Z,99697.28
2023-01-05T10:08:04.138Z,99688.50
2023-01-05T10:10:52.900Z,99676.53
2023-01-05T10:13:30.666Z,99664.01
2023-01-05T10:16:05.788Z,99664.12
2023-01-05T10:18:38.965Z,99660.76
2023-01-05T10:21:31.095Z,99643.87
2023-01-05T10:24:29.468Z,99636.05
2023-01-05T10:27:28.145Z,99642.77
2023-01-05T10:29:49.860Z,99629.63
2023-01-05T10:32:50.312Z,99619.98
2023-01-05T10:36:00.998Z,99618.69
2023-01-05T10:38:38.282Z,99623.05
2023-01-05T10:41:24.790Z,99624.19
2023-01-05T10:44:46.522Z,99622.09
2023-01-05T10:47:19.451Z,99608.17
2023-01-05T10:49:52.752Z,99598.91
2023-01-05T10:52:26.585Z,99589.75
2023-01-05T10:55:02.277Z,99574.02
2023-01-05T10:57:38.951Z,99574.80
2023-01-05T11:00:23.729Z,99566.71
2023-01-05T11:03:03.421Z,99571.77
2023-01-05T11:05:40.361Z,99561.95
2023-01-05T11:08:25.731Z,99558.59
2023-01-05T11:11:07.405Z,99543.75
2023-01-05T11:13:49.402Z,99543.53
2023-01-05T11:16:33.082Z,99529.80
2023-01-05T11:19:15.869Z,99515.63
2023-01-05T11:21:49.103Z,99505.37
2023-01-05T11:24:32.157Z,99515.30
2023-01-05T11:27:24.376Z,99512.05
2023-01-05T11:30:18.241Z,99495.03
2023-01-05T11:32:51.434Z,99483.44
2023-01-05T11:35:37.048Z,99480.48
2023-01-05T11:38:20.264Z,99466.48
2023-01-05T11:40:54.154Z,99458.36
2023-01-05T11:43:30.017Z,99469.93
2023-01-05T11:46:05.621Z,99462.55
2023-01-05T11:48:39.178Z,99458.87
2023-01-05T11:51:35.076Z,99445.44
2023-01-05T11:54:09.634Z,99446.62
2023-01-05T11:56:42.127Z,99436.06
2023-01-05T11:59:20.409Z,99433.93
2023-01-05T12:02:06.761Z,99438.10
2023-01-05T12:05:06.734Z,99431.72
2023-01-05T12:07:45.079Z,99425.56
2023-01-05T12:10:49.525Z,99422.06
2023-01-05T12:14:01.897Z,99414.72
2023-01-05T12:16:56.772Z,99402.25
2023-01-05T12:19:46.449Z,99398.67
2023-01-05T12:22:57.487Z,99386.65
2023-01-05T12:26:02.397Z,99385.66
2023-01-05T12:29:45.121Z,99367.77
2023-01-05T12:35:20.177Z,99353.16
2023-01-05T12:38:18.987Z,99342.94
2023-01-05T12:41:25.739Z,99348.11
2023-01-05T12:44:18.067Z,99348.52
2023-01-05T12:47:07.451Z,99345.53
2023-01-05T12:49:47.421Z,99332.51
2023-01-05T12:52:29.042Z,99334.20
2023-01-05T12:55:21.828Z,99319.38
2023-01-05T12:58:02.085Z,99311.27
2023-01-05T13:00:37.601Z,99303.52
2023-01-05T13:03:32.846Z,99301.83
2023-01-05T13:06:16.066Z,99294.56
2023-01-05T13:09:03.237Z,99298.43
2023-01-05T13:12:10.778Z,99296.26
2023-01-05T13:14:56.899Z,99285.93
2023-01-05T13:17:37.641Z,99285.73
2023-01-05T13:20:30.407Z,99280.68
2023-01-05T13:23:13.163Z,99272.16
2023-01-05T13:25:50.798Z,99278.61
2023-01-05T13:28:27.471Z,99277.21
2023-01-05T13:31:41.213Z,99266.67
2023-01-05T13:34:24.145Z,99264.30
2023-01-05T13:37:33.191Z,99262.13
2023-01-05T13:40:47.087Z,99251.80
2023-01-05T13:43:47.381Z,99250.19
2023-01-05T13:46:41.685Z,99245.34
2023-01-05T13:49:39.952Z,99234.09
2023-01-05T13:52:35.684Z,99228.45
2023-01-05T13:55:17.760Z,99219.42
2023-01-05T13:57:49.554Z,99226.56
2023-01-05T14:00:29.102Z,99225.17
2023-01-05T14:03:08.505Z,99207.40
2023-01-05T14:05:56.206Z,99208.17
2023-01-05T14:08:39.521Z,99201.35
2023-01-05T14:11:19.084Z,99200.43
2023-01-05T14:14:08.736Z,99187.63
2023-01-05T14:16:48.301Z,99187.73
2023-01-05T14:19:38.286Z,99180.50
2023-01-05T14:22:28.043Z,99178.53
2023-01-05T14:25:00.867Z,99164.91
2023-01-05T14:27:34.023Z,99153.02
2023-01-05T14:30:10.661Z,99154.41
2023-01-05T14:32:45.194Z,99150.23
2023-01-05T14:35:23.251Z,99148.64
2023-01-05T14:38:23.388Z,99143.17
2023-01-05T14:40:57.449Z,99138.11
2023-01-05T14:43:36.131Z,99137.42
2023-01-05T14:46:14.867Z,99132.47
2023-01-05T14:49:08.740Z,99126.01
2023-01-05T14:51:41.676Z,99121.45
2023-01-05T14:54:14.328Z,99116.39
2023-01-05T14:56:50.721Z,99109.11
2023-01-05T14:59:26.104Z,99099.29
2023-01-05T15:02:02.571Z,99097.79
2023-01-05T15:04:40.263Z,99097.11
2023-01-05T15:10:31.812Z,99088.84
2023-01-05T15:13:42.930Z,99082.68
2023-01-05T15:16:23.952Z,99071.76
2023-01-05T15:19:07.623Z,99064.71
2023-01-05T15:22:13.561Z,99065.28
2023-01-05T15:25:10.775Z,99058.14
2023-01-05T15:27:48.576Z,99050.48
2023-01-05T15:30:44.981Z,99045.00
2023-01-05T15:33:43.305Z,99045.60
2023-01-05T15:36:30.115Z,99036.44
2023-01-05T15:39:03.208Z,99020.33
2023-01-05T15:41:36.011Z,99008.07
2023-01-05T15:44:08.781Z,99006.66
2023-01-05T15:46:43.434Z,99010.13
2023-01-05T15:49:28.804Z,99000.48
2023-01-05T15:52:02.315Z,98985.71
2023-01-05T15:54:36.207Z,98983.50
2023-01-05T15:57:21.930Z,98981.19
2023-01-05T15:59:54.773Z,98983.46
2023-01-05T16:02:31.410Z,98971.72
2023-01-05T16:05:16.287Z,98961.47
2023-01-05T16:08:06.617Z,98963.32
2023-01-05T16:10:53.863Z,98960.83
2023-01-05T16:13:37.153Z,98961.42
2023-01-05T16:16:50.456Z,98964.56
2023-01-05T16:19:02.437Z,98954.72
2023-01-05T16:21:46.361Z,98948.34
2023-01-05T16:24:26.978Z,98954.81
2023-01-05T16:27:00.120Z,98947.55
2023-01-05T16:29:47.363Z,98956.98
2023-01-05T16:32:41.799Z,98947.84
2023-01-05T16:35:35.367Z,98935.05
2023-01-05T16:38:16.419Z,98938.24
2023-01-05T16:40:55.009Z,98939.58
2023-01-05T16:43:35.443Z,98935.93
2023-01-05T16:46:23.318Z,98920.23
2023-01-05T16:49:06.498Z,98930.08
2023-01-05T16:51:42.009Z,98929.98
2023-01-05T16:54:23.584Z,98919.17
2023-01-05T16:57:01.727Z,98920.84
2023-01-05T16:59:47.823Z,98918.25
2023-01-05T17:02:42.547Z,98914.38
2023-01-05T17:05:28.541Z,98919.08
2023-01-05T17:08:13.104Z,98910.02
2023-01-05T17:10:46.635Z,98903.56
2023-01-05T17:13:23.126Z,98894.69
2023-01-05T17:15:56.318Z,98901.25
2023-01-05T17:18:30.935Z,98893.08
2023-01-05T17:21:06.398Z,98880.14
2023-01-05T17:23:52.370Z,98886.11
2023-01-05T17:26:38.135Z,98883.94
2023-01-05T17:29:20.900Z,98867.03
2023-01-05T17:31:54.362Z,98862.66
2023-01-05T17:34:28.176Z,98861.27
2023-01-05T17:37:02.514Z,98863.77
2023-01-05T17:39:36.277Z,98852.95
2023-01-05T17:42:27.186Z,98848.57
2023-01-05T17:44:59.867Z,98853.74
2023-01-05T17:47:32.850Z,98836.47
2023-01-05T17:50:06.407Z,98834.58
2023-01-05T17:52:39.519Z,98831.50
2023-01-05T17:55:13.248Z,98828.35
2023-01-05T17:57:46.226Z,98826.97
2023-01-05T18:00:22.406Z,98828.64
2023-01-05T18:02:56.741Z,98830.66
2023-01-05T18:05:29.820Z,98818.03
2023-01-05T18:08:02.786Z,98803.72
2023-01-05T18:10:38.255Z,98803.63
2023-01-05T18:13:12.114Z,98795.50
2023-01-05T18:15:47.565Z,98800.75
2023-01-05T18:18:21.722Z,98798.55
2023-01-05T18:20:54.912Z,98801.13
2023-01-05T18:23:27.900Z,98806.02
2023-01-05T18:26:09.922Z,98802.14
2023-01-05T18:28:42.910Z,98795.85
2023-01-05T18:31:17.604Z,98797.70
2023-01-05T18:33:50.791Z,98798.20
2023-01-05T18:36:23.959Z,98801.20
2023-01-05T18:38:58.606Z,98803.47
2023-01-05T18:41:32.102Z,98794.42
2023-01-05T18:44:05.276Z,98791.92
2023-01-05T18:46:38.940Z,98785.95
2023-01-05T18:49:12.983Z,98782.63
2023-01-05T18:51:45.732Z,98778.34
2023-01-05T18:54:19.275Z,98775.38
2023-01-05T18:56:52.255Z,98775.84
2023-01-05T18:59:25.923Z,98763.42
2023-01-05T19:01:58.833Z,98759.13
2023-01-05T19:04:31.895Z,98770.77
2023-01-05T19:07:04.654Z,98769.18
2023-01-05T19:09:38.376Z,98749.38
2023-01-05T19:12:11.264Z,98751.63
2023-01-05T19:14:44.588Z,98748.25
2023-01-05T19:17:17.623Z,98748.42
2023-01-05T19:19:50.690Z,98737.75
2023-01-05T19:22:23.499Z,98735.67
2023-01-05T19:24:57.229Z,98740.22
2023-01-05T19:27:30.745Z,98735.13
2023-01-05T19:30:04.037Z,98727.42
2023-01-05T19:32:37.623Z,98723.80
2023-01-05T19:35:10.681Z,98721.01
2023-01-05T19:37:45.567Z,98718.59
2023-01-05T19:40:20.221Z,98717.93
2023-01-05T19:42:53.722Z,98712.55
2023-01-05T19:45:28.469Z,98702.33
2023-01-05T19:48:01.447Z,98702.11
2023-01-05T19:50:35.677Z,98702.20
2023-01-05T19:53:08.391Z,98709.22
2023-01-05T19:55:41.619Z,98711.97
2023-01-05T19:58:15.211Z,98707.88
2023-01-05T20:00:48.393Z,98707.05
2023-01-05T20:03:21.012Z,98699.45
2023-01-05T20:05:54.309Z,98711.27
2023-01-05T20:08:27.377Z,98724.28
2023-01-05T20:11:02.453Z,98709.42
2023-01-05T20:13:35.388Z,98700.82
2023-01-05T20:16:12.450Z,98700.91
2023-01-05T20:18:45.179Z,98704.48
2023-01-05T20:21:17.975Z,98710.12
2023-01-05T20:23:51.358Z,98706.33
2023-01-05T20:26:24.935Z,98704.23
2023-01-05T20:29:00.246Z,98713.87
2023-01-05T20:31:36.662Z,98698.72
2023-01-05T20:34:14.293Z,98707.48
2023-01-05T20:36:48.459Z,98695.00
2023-01-05T20:39:23.789Z,98698.55
2023-01-05T20:41:57.110Z,98703.73
2023-01-05T20:44:29.927Z,98706.02
2023-01-05T20:47:03.680Z,98708.20
2023-01-05T20:49:38.915Z,98703.51
2023-01-05T20:52:13.387Z,98701.00
2023-01-05T20:54:46.388Z,98708.85
2023-01-05T20:57:19.740Z,98715.79
2023-01-05T20:59:52.763Z,98702.92
2023-01-05T21:02:25.710Z,98706.01
2023-01-05T21:04:58.507Z,98710.77
2023-01-05T21:07:32.018Z,98716.03
2023-01-05T21:10:04.930Z,98707.47
2023-01-05T21:12:38.062Z,98696.69
2023-01-05T21:15:12.322Z,98685.45
2023-01-05T21:17:44.837Z,98688.92
2023-01-05T21:20:17.673Z,98688.45
2023-01-05T21:22:50.739Z,98689.75
2023-01-05T21:25:25.211Z,98682.86
2023-01-05T21:27:58.344Z,98689.34
2023-01-05T21:30:31.049Z,98686.75
2023-01-05T21:33:06.644Z,98682.45
2023-01-05T21:35:39.875Z,98687.24
2023-01-05T21:38:12.881Z,98678.64
2023-01-05T21:40:46.040Z,98683.02
2023-01-05T21:43:19.165Z,98692.58
2023-01-05T21:45:51.809Z,98683.02
2023-01-05T21:48:24.639Z,98682.14
2023-01-05T21:51:19.232Z,98679.63
2023-01-05T21:54:10.473Z,98671.37
2023-01-05T21:56:44.793Z,98673.16
2023-01-05T21:59:17.579Z,98673.63
2023-01-05T22:01:50.356Z,98683.98
2023-01-05T22:04:23.462Z,98684.48
2023-01-05T22:06:57.732Z,98686.65
2023-01-05T22:09:32.059Z,98687.06
2023-01-05T22:12:10.699Z,98687.06
2023-01-05T22:14:43.972Z,98685.27
2023-01-05T22:17:17.008Z,98681.39
2023-01-05T22:19:49.881Z,98674.11
2023-01-05T22:22:23.205Z,98678.88
2023-01-05T22:24:56.111Z,98684.94
2023-01-05T22:27:30.024Z,98682.77
2023-01-05T22:30:02.791Z,98674.11
2023-01-05T22:32:40.117Z,98682.69
2023-01-05T22:35:13.490Z,98674.03
2023-01-05T22:37:46.400Z,98674.45
2023-01-05T22:40:20.962Z,98678.34
2023-01-05T22:42:53.961Z,98670.23
2023-01-05T22:45:26.976Z,98661.97
2023-01-05T22:47:59.863Z,98662.84
2023-01-05T22:50:34.076Z,98658.58
2023-01-05T22:53:06.993Z,98663.75
2023-01-05T22:55:41.634Z,98659.87
2023-01-05T22:58:14.622Z,98663.26
2023-01-05T23:00:47.564Z,98662.84
2023-01-05T23:03:22.018Z,98660.75
2023-01-05T23:05:54.657Z,98654.69
2023-01-05T23:08:27.859Z,98656.06
2023-01-05T23:11:03.344Z,98656.86
2023-01-05T23:13:36.435Z,98656.86
2023-01-05T23:16:10.197Z,98650.31
2023-01-05T23:18:43.562Z,98655.08
2023-01-05T23:21:17.482Z,98650.80
2023-01-05T23:23:51.778Z,98653.94
2023-01-05T23:26:27.045Z,98650.96
2023-01-05T23:28:59.911Z,98657.02
2023-01-05T23:31:33.157Z,98653.63
2023-01-05T23:34:05.917Z,98649.83
2023-01-05T23:36:39.031Z,98662.86
2023-01-05T23:39:12.046Z,98662.10
2023-01-05T23:41:44.923Z,98658.63
2023-01-05T23:44:17.846Z,98668.58
2023-01-05T23:46:51.102Z,98663.81
2023-01-05T23:49:23.841Z,98665.98
2023-01-05T23:51:56.691Z,98661.72
2023-01-05T23:54:29.477Z,98665.61
2023-01-05T23:57:02.483Z,98660.00
2023-01-05T23:59:35.674Z,98669.56
